sensor_id;sensor_type;location;lat;lon;timestamp;temperature;humidity
66928;DHT22;59882;45.624;11.698;2023-03-31T00:01:57;13.00;70.60
66928;DHT22;59882;45.624;11.698;2023-03-31T00:04:23;13.10;71.10
66928;DHT22;59882;45.624;11.698;2023-03-31T00:06:50;13.10;70.80
66928;DHT22;59882;45.624;11.698;2023-03-31T00:09:18;13.10;70.50
66928;DHT22;59882;45.624;11.698;2023-03-31T00:11:47;13.10;70.60
66928;DHT22;59882;45.624;11.698;2023-03-31T00:14:14;13.10;70.50
66928;DHT22;59882;45.624;11.698;2023-03-31T00:16:42;13.10;70.90
66928;DHT22;59882;45.624;11.698;2023-03-31T00:19:08;13.10;71.10
66928;DHT22;59882;45.624;11.698;2023-03-31T00:21:43;13.10;70.60
66928;DHT22;59882;45.624;11.698;2023-03-31T00:24:10;13.10;71.10
66928;DHT22;59882;45.624;11.698;2023-03-31T00:26:37;13.10;71.00
66928;DHT22;59882;45.624;11.698;2023-03-31T00:29:04;13.10;71.10
66928;DHT22;59882;45.624;11.698;2023-03-31T00:31:30;13.00;71.20
66928;DHT22;59882;45.624;11.698;2023-03-31T00:33:56;13.00;71.40
66928;DHT22;59882;45.624;11.698;2023-03-31T00:36:23;13.00;71.40
66928;DHT22;59882;45.624;11.698;2023-03-31T00:39:01;13.00;71.40
66928;DHT22;59882;45.624;11.698;2023-03-31T00:41:29;12.90;70.90
66928;DHT22;59882;45.624;11.698;2023-03-31T00:44:14;13.00;71.10
66928;DHT22;59882;45.624;11.698;2023-03-31T00:47:02;13.00;71.20
66928;DHT22;59882;45.624;11.698;2023-03-31T00:49:32;12.90;70.90
66928;DHT22;59882;45.624;11.698;2023-03-31T00:54:31;13.00;71.00
66928;DHT22;59882;45.624;11.698;2023-03-31T00:56:58;12.90;71.60
66928;DHT22;59882;45.624;11.698;2023-03-31T00:59:29;12.90;71.90
66928;DHT22;59882;45.624;11.698;2023-03-31T01:01:58;12.90;72.10
66928;DHT22;59882;45.624;11.698;2023-03-31T01:04:32;12.90;71.20
66928;DHT22;59882;45.624;11.698;2023-03-31T01:07:06;12.90;71.60
66928;DHT22;59882;45.624;11.698;2023-03-31T01:09:33;12.90;71.40
66928;DHT22;59882;45.624;11.698;2023-03-31T01:12:05;12.90;71.10
66928;DHT22;59882;45.624;11.698;2023-03-31T01:14:31;12.90;71.50
66928;DHT22;59882;45.624;11.698;2023-03-31T01:16:57;12.90;72.30
66928;DHT22;59882;45.624;11.698;2023-03-31T01:20:03;12.90;72.40
66928;DHT22;59882;45.624;11.698;2023-03-31T01:25:29;12.90;72.10
66928;DHT22;59882;45.624;11.698;2023-03-31T01:28:32;12.90;71.70
66928;DHT22;59882;45.624;11.698;2023-03-31T01:39:52;12.90;72.40
66928;DHT22;59882;45.624;11.698;2023-03-31T01:42:35;12.90;72.30
66928;DHT22;59882;45.624;11.698;2023-03-31T01:47:48;12.90;72.30
66928;DHT22;59882;45.624;11.698;2023-03-31T01:50:37;12.90;72.20
66928;DHT22;59882;45.624;11.698;2023-03-31T01:53:19;12.90;72.00
66928;DHT22;59882;45.624;11.698;2023-03-31T01:58:38;12.90;71.90
66928;DHT22;59882;45.624;11.698;2023-03-31T02:01:16;12.90;72.60
66928;DHT22;59882;45.624;11.698;2023-03-31T02:04:20;12.80;73.10
66928;DHT22;59882;45.624;11.698;2023-03-31T02:06:51;12.80;73.20
66928;DHT22;59882;45.624;11.698;2023-03-31T02:09:23;12.70;73.20
66928;DHT22;59882;45.624;11.698;2023-03-31T02:11:50;12.80;73.10
66928;DHT22;59882;45.624;11.698;2023-03-31T02:14:23;12.70;73.30
66928;DHT22;59882;45.624;11.698;2023-03-31T02:16:53;12.70;73.40
66928;DHT22;59882;45.624;11.698;2023-03-31T02:19:25;12.70;72.90
66928;DHT22;59882;45.624;11.698;2023-03-31T02:21:52;12.70;73.50
66928;DHT22;59882;45.624;11.698;2023-03-31T02:24:22;12.70;73.00
66928;DHT22;59882;45.624;11.698;2023-03-31T02:26:58;12.80;72.70
66928;DHT22;59882;45.624;11.698;2023-03-31T02:29:26;12.80;73.30
66928;DHT22;59882;45.624;11.698;2023-03-31T02:34:28;12.80;73.20
66928;DHT22;59882;45.624;11.698;2023-03-31T02:36:54;12.80;73.40
66928;DHT22;59882;45.624;11.698;2023-03-31T02:39:32;12.80;72.80
66928;DHT22;59882;45.624;11.698;2023-03-31T02:41:59;12.80;73.10
66928;DHT22;59882;45.624;11.698;2023-03-31T02:44:37;12.80;72.90
66928;DHT22;59882;45.624;11.698;2023-03-31T02:47:06;12.80;73.30
66928;DHT22;59882;45.624;11.698;2023-03-31T02:49:33;12.80;73.40
66928;DHT22;59882;45.624;11.698;2023-03-31T03:03:20;12.80;72.90
66928;DHT22;59882;45.624;11.698;2023-03-31T03:06:17;12.80;72.70
66928;DHT22;59882;45.624;11.698;2023-03-31T03:09:05;12.80;72.80
66928;DHT22;59882;45.624;11.698;2023-03-31T03:14:48;12.90;72.40
66928;DHT22;59882;45.624;11.698;2023-03-31T03:17:29;12.90;73.00
66928;DHT22;59882;45.624;11.698;2023-03-31T03:19:59;12.90;73.40
66928;DHT22;59882;45.624;11.698;2023-03-31T03:22:25;12.80;73.40
66928;DHT22;59882;45.624;11.698;2023-03-31T03:24:52;12.80;73.70
66928;DHT22;59882;45.624;11.698;2023-03-31T03:27:19;12.80;73.60
66928;DHT22;59882;45.624;11.698;2023-03-31T03:29:47;12.70;73.60
66928;DHT22;59882;45.624;11.698;2023-03-31T03:32:12;12.70;73.60
66928;DHT22;59882;45.624;11.698;2023-03-31T03:34:38;12.70;73.40
66928;DHT22;59882;45.624;11.698;2023-03-31T03:37:04;12.80;73.30
66928;DHT22;59882;45.624;11.698;2023-03-31T03:39:30;12.70;73.10
66928;DHT22;59882;45.624;11.698;2023-03-31T03:41:56;12.80;72.90
66928;DHT22;59882;45.624;11.698;2023-03-31T03:44:21;12.80;73.40
66928;DHT22;59882;45.624;11.698;2023-03-31T03:46:47;12.70;73.20
66928;DHT22;59882;45.624;11.698;2023-03-31T03:49:12;12.80;73.50
66928;DHT22;59882;45.624;11.698;2023-03-31T03:51:38;12.70;73.90
66928;DHT22;59882;45.624;11.698;2023-03-31T03:54:04;12.70;74.10
66928;DHT22;59882;45.624;11.698;2023-03-31T03:56:29;12.70;74.20
66928;DHT22;59882;45.624;11.698;2023-03-31T03:58:55;12.60;74.20
66928;DHT22;59882;45.624;11.698;2023-03-31T04:01:22;12.60;74.20
66928;DHT22;59882;45.624;11.698;2023-03-31T04:03:48;12.70;74.50
66928;DHT22;59882;45.624;11.698;2023-03-31T04:06:13;12.60;74.60
66928;DHT22;59882;45.624;11.698;2023-03-31T04:08:39;12.60;74.30
66928;DHT22;59882;45.624;11.698;2023-03-31T04:11:12;12.60;74.90
66928;DHT22;59882;45.624;11.698;2023-03-31T04:13:38;12.60;74.20
66928;DHT22;59882;45.624;11.698;2023-03-31T04:16:04;12.60;74.60
66928;DHT22;59882;45.624;11.698;2023-03-31T04:18:30;12.60;74.60
66928;DHT22;59882;45.624;11.698;2023-03-31T04:20:56;12.60;74.50
66928;DHT22;59882;45.624;11.698;2023-03-31T04:23:35;12.50;74.40
66928;DHT22;59882;45.624;11.698;2023-03-31T04:26:10;12.60;74.10
66928;DHT22;59882;45.624;11.698;2023-03-31T04:28:37;12.60;74.40
66928;DHT22;59882;45.624;11.698;2023-03-31T04:31:03;12.60;74.40
66928;DHT22;59882;45.624;11.698;2023-03-31T04:33:31;12.50;74.60
66928;DHT22;59882;45.624;11.698;2023-03-31T04:35:59;12.50;74.60
66928;DHT22;59882;45.624;11.698;2023-03-31T04:38:31;12.50;74.80
66928;DHT22;59882;45.624;11.698;2023-03-31T04:40:58;12.50;74.80
66928;DHT22;59882;45.624;11.698;2023-03-31T04:43:24;12.50;74.40
66928;DHT22;59882;45.624;11.698;2023-03-31T04:45:50;12.50;74.50
66928;DHT22;59882;45.624;11.698;2023-03-31T04:48:16;12.60;74.30
66928;DHT22;59882;45.624;11.698;2023-03-31T04:50:42;12.60;74.30
66928;DHT22;59882;45.624;11.698;2023-03-31T04:53:07;12.50;74.60
66928;DHT22;59882;45.624;11.698;2023-03-31T04:55:33;12.60;74.60
66928;DHT22;59882;45.624;11.698;2023-03-31T04:57:59;12.60;74.50
66928;DHT22;59882;45.624;11.698;2023-03-31T05:00:25;12.60;74.50
66928;DHT22;59882;45.624;11.698;2023-03-31T05:02:51;12.60;74.30
66928;DHT22;59882;45.624;11.698;2023-03-31T05:05:17;12.60;74.20
66928;DHT22;59882;45.624;11.698;2023-03-31T05:07:43;12.60;74.10
66928;DHT22;59882;45.624;11.698;2023-03-31T05:10:09;12.60;74.40
66928;DHT22;59882;45.624;11.698;2023-03-31T05:12:38;12.60;74.30
66928;DHT22;59882;45.624;11.698;2023-03-31T05:15:05;12.60;74.40
66928;DHT22;59882;45.624;11.698;2023-03-31T05:17:31;12.60;74.40
66928;DHT22;59882;45.624;11.698;2023-03-31T05:19:57;12.60;74.10
66928;DHT22;59882;45.624;11.698;2023-03-31T05:22:23;12.60;74.20
66928;DHT22;59882;45.624;11.698;2023-03-31T05:24:49;12.60;74.20
66928;DHT22;59882;45.624;11.698;2023-03-31T05:27:15;12.60;74.00
66928;DHT22;59882;45.624;11.698;2023-03-31T05:29:41;12.60;74.10
66928;DHT22;59882;45.624;11.698;2023-03-31T05:32:06;12.60;74.20
66928;DHT22;59882;45.624;11.698;2023-03-31T05:34:32;12.60;74.20
66928;DHT22;59882;45.624;11.698;2023-03-31T05:36:57;12.60;74.10
66928;DHT22;59882;45.624;11.698;2023-03-31T05:39:23;12.60;74.10
66928;DHT22;59882;45.624;11.698;2023-03-31T05:41:49;12.60;74.20
66928;DHT22;59882;45.624;11.698;2023-03-31T05:44:15;12.60;74.30
66928;DHT22;59882;45.624;11.698;2023-03-31T05:46:41;12.60;74.10
66928;DHT22;59882;45.624;11.698;2023-03-31T05:49:07;12.60;73.90
66928;DHT22;59882;45.624;11.698;2023-03-31T05:51:33;12.60;74.00
66928;DHT22;59882;45.624;11.698;2023-03-31T05:53:58;12.60;73.90
66928;DHT22;59882;45.624;11.698;2023-03-31T05:56:24;12.60;73.80
66928;DHT22;59882;45.624;11.698;2023-03-31T05:58:52;12.60;73.70
66928;DHT22;59882;45.624;11.698;2023-03-31T06:01:18;12.70;73.50
66928;DHT22;59882;45.624;11.698;2023-03-31T06:03:45;12.70;73.60
66928;DHT22;59882;45.624;11.698;2023-03-31T06:06:11;12.60;73.70
66928;DHT22;59882;45.624;11.698;2023-03-31T06:08:42;12.70;73.70
66928;DHT22;59882;45.624;11.698;2023-03-31T06:11:12;12.70;73.50
66928;DHT22;59882;45.624;11.698;2023-03-31T06:13:39;12.70;73.80
66928;DHT22;59882;45.624;11.698;2023-03-31T06:16:05;12.70;73.70
66928;DHT22;59882;45.624;11.698;2023-03-31T06:18:33;12.70;73.60
66928;DHT22;59882;45.624;11.698;2023-03-31T06:20:59;12.70;73.60
66928;DHT22;59882;45.624;11.698;2023-03-31T06:23:25;12.70;73.30
66928;DHT22;59882;45.624;11.698;2023-03-31T06:25:52;12.70;73.30
66928;DHT22;59882;45.624;11.698;2023-03-31T06:28:19;12.80;73.50
66928;DHT22;59882;45.624;11.698;2023-03-31T06:30:45;12.80;73.90
66928;DHT22;59882;45.624;11.698;2023-03-31T06:33:10;12.80;73.80
66928;DHT22;59882;45.624;11.698;2023-03-31T06:35:37;12.80;73.70
66928;DHT22;59882;45.624;11.698;2023-03-31T06:38:03;12.80;73.70
66928;DHT22;59882;45.624;11.698;2023-03-31T06:40:29;12.70;74.00
66928;DHT22;59882;45.624;11.698;2023-03-31T06:42:54;12.80;74.10
66928;DHT22;59882;45.624;11.698;2023-03-31T06:45:20;12.80;74.00
66928;DHT22;59882;45.624;11.698;2023-03-31T06:47:46;12.80;74.00
66928;DHT22;59882;45.624;11.698;2023-03-31T06:50:11;12.80;74.10
66928;DHT22;59882;45.624;11.698;2023-03-31T06:52:37;12.80;74.20
66928;DHT22;59882;45.624;11.698;2023-03-31T06:55:05;12.80;74.50
66928;DHT22;59882;45.624;11.698;2023-03-31T06:57:31;12.80;74.00
66928;DHT22;59882;45.624;11.698;2023-03-31T06:59:58;12.80;73.70
66928;DHT22;59882;45.624;11.698;2023-03-31T07:02:24;12.90;73.70
66928;DHT22;59882;45.624;11.698;2023-03-31T07:04:49;12.90;73.50
66928;DHT22;59882;45.624;11.698;2023-03-31T07:07:15;12.90;73.30
66928;DHT22;59882;45.624;11.698;2023-03-31T07:09:41;12.90;73.20
66928;DHT22;59882;45.624;11.698;2023-03-31T07:12:07;12.90;73.30
66928;DHT22;59882;45.624;11.698;2023-03-31T07:14:32;12.90;73.10
66928;DHT22;59882;45.624;11.698;2023-03-31T07:16:58;12.90;73.00
66928;DHT22;59882;45.624;11.698;2023-03-31T07:19:24;12.90;73.00
66928;DHT22;59882;45.624;11.698;2023-03-31T07:21:50;12.90;73.00
66928;DHT22;59882;45.624;11.698;2023-03-31T07:24:16;12.90;72.90
66928;DHT22;59882;45.624;11.698;2023-03-31T07:26:42;12.90;73.10
66928;DHT22;59882;45.624;11.698;2023-03-31T07:29:07;12.90;73.20
66928;DHT22;59882;45.624;11.698;2023-03-31T07:31:33;12.90;73.50
66928;DHT22;59882;45.624;11.698;2023-03-31T07:34:01;12.90;73.50
66928;DHT22;59882;45.624;11.698;2023-03-31T07:36:27;12.90;73.50
66928;DHT22;59882;45.624;11.698;2023-03-31T07:38:53;13.00;73.50
66928;DHT22;59882;45.624;11.698;2023-03-31T07:41:20;13.00;73.40
66928;DHT22;59882;45.624;11.698;2023-03-31T07:43:47;13.00;73.50
66928;DHT22;59882;45.624;11.698;2023-03-31T07:46:24;13.10;73.50
66928;DHT22;59882;45.624;11.698;2023-03-31T07:48:52;13.10;73.20
66928;DHT22;59882;45.624;11.698;2023-03-31T07:51:19;13.10;73.50
66928;DHT22;59882;45.624;11.698;2023-03-31T07:53:46;13.10;73.50
66928;DHT22;59882;45.624;11.698;2023-03-31T07:56:14;13.10;73.50
66928;DHT22;59882;45.624;11.698;2023-03-31T07:58:42;13.10;73.90
66928;DHT22;59882;45.624;11.698;2023-03-31T08:01:07;13.10;73.60
66928;DHT22;59882;45.624;11.698;2023-03-31T08:03:33;13.10;73.50
66928;DHT22;59882;45.624;11.698;2023-03-31T08:05:59;13.20;73.30
66928;DHT22;59882;45.624;11.698;2023-03-31T08:08:24;13.20;73.60
66928;DHT22;59882;45.624;11.698;2023-03-31T08:10:51;13.30;73.20
66928;DHT22;59882;45.624;11.698;2023-03-31T08:13:16;13.20;73.10
66928;DHT22;59882;45.624;11.698;2023-03-31T08:15:42;13.30;73.10
66928;DHT22;59882;45.624;11.698;2023-03-31T08:18:08;13.30;73.10
66928;DHT22;59882;45.624;11.698;2023-03-31T08:20:33;13.30;73.20
66928;DHT22;59882;45.624;11.698;2023-03-31T08:22:59;13.30;73.00
66928;DHT22;59882;45.624;11.698;2023-03-31T08:25:24;13.40;73.10
66928;DHT22;59882;45.624;11.698;2023-03-31T08:27:50;13.40;72.90
66928;DHT22;59882;45.624;11.698;2023-03-31T08:30:17;13.40;72.90
66928;DHT22;59882;45.624;11.698;2023-03-31T08:32:43;13.40;73.00
66928;DHT22;59882;45.624;11.698;2023-03-31T08:35:10;13.40;72.90
66928;DHT22;59882;45.624;11.698;2023-03-31T08:37:36;13.40;72.60
66928;DHT22;59882;45.624;11.698;2023-03-31T08:40:04;13.40;72.80
66928;DHT22;59882;45.624;11.698;2023-03-31T08:42:38;13.40;72.70
66928;DHT22;59882;45.624;11.698;2023-03-31T08:45:49;13.40;72.40
66928;DHT22;59882;45.624;11.698;2023-03-31T08:48:07;13.40;72.70
66928;DHT22;59882;45.624;11.698;2023-03-31T08:50:39;13.40;73.00
66928;DHT22;59882;45.624;11.698;2023-03-31T08:55:48;13.50;73.10
66928;DHT22;59882;45.624;11.698;2023-03-31T08:58:31;13.50;72.60
66928;DHT22;59882;45.624;11.698;2023-03-31T09:09:38;13.70;72.20
66928;DHT22;59882;45.624;11.698;2023-03-31T09:12:15;13.70;72.30
66928;DHT22;59882;45.624;11.698;2023-03-31T09:15:18;13.80;72.10
66928;DHT22;59882;45.624;11.698;2023-03-31T09:17:45;13.80;71.90
66928;DHT22;59882;45.624;11.698;2023-03-31T09:20:27;13.80;71.80
66928;DHT22;59882;45.624;11.698;2023-03-31T09:23:19;13.90;71.70
66928;DHT22;59882;45.624;11.698;2023-03-31T09:25:48;13.90;72.00
66928;DHT22;59882;45.624;11.698;2023-03-31T09:28:32;13.90;71.90
66928;DHT22;59882;45.624;11.698;2023-03-31T09:31:00;13.90;71.90
66928;DHT22;59882;45.624;11.698;2023-03-31T09:33:29;13.90;72.20
66928;DHT22;59882;45.624;11.698;2023-03-31T09:35:59;13.90;72.20
66928;DHT22;59882;45.624;11.698;2023-03-31T09:38:25;14.00;72.30
66928;DHT22;59882;45.624;11.698;2023-03-31T09:40:57;13.90;71.80
66928;DHT22;59882;45.624;11.698;2023-03-31T09:43:26;14.00;71.50
66928;DHT22;59882;45.624;11.698;2023-03-31T09:45:52;14.00;71.40
66928;DHT22;59882;45.624;11.698;2023-03-31T09:48:25;14.00;71.20
66928;DHT22;59882;45.624;11.698;2023-03-31T09:51:06;14.00;71.30
66928;DHT22;59882;45.624;11.698;2023-03-31T09:53:52;14.00;71.50
66928;DHT22;59882;45.624;11.698;2023-03-31T09:56:33;14.00;71.70
66928;DHT22;59882;45.624;11.698;2023-03-31T09:59:01;14.00;71.70
66928;DHT22;59882;45.624;11.698;2023-03-31T10:01:28;14.00;71.60
66928;DHT22;59882;45.624;11.698;2023-03-31T10:03:54;14.00;71.40
66928;DHT22;59882;45.624;11.698;2023-03-31T10:06:22;14.00;72.10
66928;DHT22;59882;45.624;11.698;2023-03-31T10:08:53;14.10;71.70
66928;DHT22;59882;45.624;11.698;2023-03-31T10:11:19;14.00;72.00
66928;DHT22;59882;45.624;11.698;2023-03-31T10:16:21;14.10;72.50
66928;DHT22;59882;45.624;11.698;2023-03-31T10:18:47;14.20;72.10
66928;DHT22;59882;45.624;11.698;2023-03-31T10:21:25;14.30;72.30
66928;DHT22;59882;45.624;11.698;2023-03-31T10:23:52;14.30;72.00
66928;DHT22;59882;45.624;11.698;2023-03-31T10:26:36;14.30;71.70
66928;DHT22;59882;45.624;11.698;2023-03-31T10:29:10;14.30;71.40
66928;DHT22;59882;45.624;11.698;2023-03-31T10:31:38;14.30;71.30
66928;DHT22;59882;45.624;11.698;2023-03-31T10:34:08;14.30;71.50
66928;DHT22;59882;45.624;11.698;2023-03-31T10:36:45;14.40;71.60
66928;DHT22;59882;45.624;11.698;2023-03-31T10:39:16;14.40;71.90
66928;DHT22;59882;45.624;11.698;2023-03-31T10:41:43;14.40;71.90
66928;DHT22;59882;45.624;11.698;2023-03-31T10:44:43;14.40;71.00
66928;DHT22;59882;45.624;11.698;2023-03-31T10:49:42;14.40;70.90
66928;DHT22;59882;45.624;11.698;2023-03-31T10:52:17;14.40;70.90
66928;DHT22;59882;45.624;11.698;2023-03-31T10:54:52;14.40;70.80
66928;DHT22;59882;45.624;11.698;2023-03-31T10:57:24;14.40;70.30
66928;DHT22;59882;45.624;11.698;2023-03-31T11:05:48;14.40;70.00
66928;DHT22;59882;45.624;11.698;2023-03-31T11:19:58;14.40;69.70
66928;DHT22;59882;45.624;11.698;2023-03-31T11:22:49;14.40;69.90
66928;DHT22;59882;45.624;11.698;2023-03-31T11:25:42;14.40;70.00
66928;DHT22;59882;45.624;11.698;2023-03-31T11:28:52;14.40;70.00
66928;DHT22;59882;45.624;11.698;2023-03-31T11:31:28;14.50;70.40
66928;DHT22;59882;45.624;11.698;2023-03-31T11:34:38;14.50;69.90
66928;DHT22;59882;45.624;11.698;2023-03-31T11:37:41;14.60;69.80
66928;DHT22;59882;45.624;11.698;2023-03-31T11:42:59;14.80;70.10
66928;DHT22;59882;45.624;11.698;2023-03-31T11:54:12;15.50;69.50
66928;DHT22;59882;45.624;11.698;2023-03-31T11:56:40;15.80;69.40
66928;DHT22;59882;45.624;11.698;2023-03-31T11:59:10;16.00;68.40
66928;DHT22;59882;45.624;11.698;2023-03-31T12:02:04;16.30;66.90
66928;DHT22;59882;45.624;11.698;2023-03-31T12:04:44;16.60;67.10
66928;DHT22;59882;45.624;11.698;2023-03-31T12:07:30;16.80;66.10
66928;DHT22;59882;45.624;11.698;2023-03-31T12:10:37;16.90;64.60
66928;DHT22;59882;45.624;11.698;2023-03-31T12:15:56;17.30;64.90
66928;DHT22;59882;45.624;11.698;2023-03-31T12:18:27;17.60;64.50
66928;DHT22;59882;45.624;11.698;2023-03-31T12:20:59;17.80;61.70
66928;DHT22;59882;45.624;11.698;2023-03-31T12:23:29;17.80;61.80
66928;DHT22;59882;45.624;11.698;2023-03-31T12:28:55;17.80;61.10
66928;DHT22;59882;45.624;11.698;2023-03-31T12:31:23;17.90;61.80
66928;DHT22;59882;45.624;11.698;2023-03-31T12:33:59;17.90;61.70
66928;DHT22;59882;45.624;11.698;2023-03-31T12:39:09;17.80;60.40
66928;DHT22;59882;45.624;11.698;2023-03-31T12:50:19;17.30;62.20
66928;DHT22;59882;45.624;11.698;2023-03-31T12:52:51;17.20;62.10
66928;DHT22;59882;45.624;11.698;2023-03-31T12:55:39;17.00;62.50
66928;DHT22;59882;45.624;11.698;2023-03-31T13:01:06;16.90;62.40
66928;DHT22;59882;45.624;11.698;2023-03-31T13:06:00;16.70;63.10
66928;DHT22;59882;45.624;11.698;2023-03-31T13:08:49;16.60;62.90
66928;DHT22;59882;45.624;11.698;2023-03-31T13:11:15;16.60;63.60
66928;DHT22;59882;45.624;11.698;2023-03-31T13:16:23;16.50;64.70
66928;DHT22;59882;45.624;11.698;2023-03-31T13:18:53;16.50;64.80
66928;DHT22;59882;45.624;11.698;2023-03-31T13:21:19;16.50;64.70
66928;DHT22;59882;45.624;11.698;2023-03-31T13:23:46;16.40;64.80
66928;DHT22;59882;45.624;11.698;2023-03-31T13:26:47;16.40;64.80
66928;DHT22;59882;45.624;11.698;2023-03-31T13:48:39;16.10;65.60
66928;DHT22;59882;45.624;11.698;2023-03-31T13:51:16;16.10;66.00
66928;DHT22;59882;45.624;11.698;2023-03-31T13:56:29;16.10;66.60
66928;DHT22;59882;45.624;11.698;2023-03-31T13:59:30;16.10;66.80
66928;DHT22;59882;45.624;11.698;2023-03-31T14:10:37;16.10;66.80
66928;DHT22;59882;45.624;11.698;2023-03-31T14:13:15;16.00;66.70
66928;DHT22;59882;45.624;11.698;2023-03-31T14:18:30;15.90;66.60
66928;DHT22;59882;45.624;11.698;2023-03-31T14:23:58;15.80;67.00
66928;DHT22;59882;45.624;11.698;2023-03-31T14:26:46;15.80;67.00
66928;DHT22;59882;45.624;11.698;2023-03-31T14:29:23;15.70;66.90
66928;DHT22;59882;45.624;11.698;2023-03-31T14:35:16;15.60;67.10
66928;DHT22;59882;45.624;11.698;2023-03-31T14:37:48;15.60;67.50
66928;DHT22;59882;45.624;11.698;2023-03-31T14:40:15;15.50;67.60
66928;DHT22;59882;45.624;11.698;2023-03-31T14:42:42;15.50;67.50
66928;DHT22;59882;45.624;11.698;2023-03-31T14:45:19;15.40;67.90
66928;DHT22;59882;45.624;11.698;2023-03-31T14:48:17;15.40;68.00
66928;DHT22;59882;45.624;11.698;2023-03-31T14:50:44;15.40;68.10
66928;DHT22;59882;45.624;11.698;2023-03-31T14:53:14;15.30;68.20
66928;DHT22;59882;45.624;11.698;2023-03-31T14:55:41;15.30;68.10
66928;DHT22;59882;45.624;11.698;2023-03-31T14:58:11;15.30;68.10
66928;DHT22;59882;45.624;11.698;2023-03-31T15:00:38;15.30;68.60
66928;DHT22;59882;45.624;11.698;2023-03-31T15:03:07;15.30;68.50
66928;DHT22;59882;45.624;11.698;2023-03-31T15:05:35;15.30;68.70
66928;DHT22;59882;45.624;11.698;2023-03-31T15:08:06;15.20;68.70
66928;DHT22;59882;45.624;11.698;2023-03-31T15:10:41;15.30;68.60
66928;DHT22;59882;45.624;11.698;2023-03-31T15:13:15;15.30;68.60
66928;DHT22;59882;45.624;11.698;2023-03-31T15:15:41;15.30;68.60
66928;DHT22;59882;45.624;11.698;2023-03-31T15:18:11;15.30;68.70
66928;DHT22;59882;45.624;11.698;2023-03-31T15:20:40;15.20;68.80
66928;DHT22;59882;45.624;11.698;2023-03-31T15:25:57;15.20;68.90
66928;DHT22;59882;45.624;11.698;2023-03-31T15:28:25;15.20;69.50
66928;DHT22;59882;45.624;11.698;2023-03-31T15:30:52;15.10;69.70
66928;DHT22;59882;45.624;11.698;2023-03-31T15:33:22;15.10;69.60
66928;DHT22;59882;45.624;11.698;2023-03-31T15:35:49;15.10;69.50
66928;DHT22;59882;45.624;11.698;2023-03-31T15:38:15;15.00;69.50
66928;DHT22;59882;45.624;11.698;2023-03-31T15:40:43;14.90;70.10
66928;DHT22;59882;45.624;11.698;2023-03-31T15:45:59;14.90;71.30
66928;DHT22;59882;45.624;11.698;2023-03-31T15:48:29;14.80;71.10
66928;DHT22;59882;45.624;11.698;2023-03-31T15:51:04;14.90;71.80
66928;DHT22;59882;45.624;11.698;2023-03-31T15:53:37;14.80;72.20
66928;DHT22;59882;45.624;11.698;2023-03-31T15:56:03;14.80;72.50
66928;DHT22;59882;45.624;11.698;2023-03-31T15:58:54;14.70;73.00
66928;DHT22;59882;45.624;11.698;2023-03-31T16:01:22;14.70;72.90
66928;DHT22;59882;45.624;11.698;2023-03-31T16:03:51;14.60;72.90
66928;DHT22;59882;45.624;11.698;2023-03-31T16:06:43;14.60;72.70
66928;DHT22;59882;45.624;11.698;2023-03-31T16:09:17;14.60;73.90
66928;DHT22;59882;45.624;11.698;2023-03-31T16:11:47;14.50;73.00
66928;DHT22;59882;45.624;11.698;2023-03-31T16:14:21;14.40;73.90
66928;DHT22;59882;45.624;11.698;2023-03-31T16:17:50;14.40;74.00
66928;DHT22;59882;45.624;11.698;2023-03-31T16:19:50;14.40;74.40
66928;DHT22;59882;45.624;11.698;2023-03-31T16:22:20;14.30;74.70
66928;DHT22;59882;45.624;11.698;2023-03-31T16:24:46;14.30;74.20
66928;DHT22;59882;45.624;11.698;2023-03-31T16:27:13;14.20;74.40
66928;DHT22;59882;45.624;11.698;2023-03-31T16:29:39;14.20;74.90
66928;DHT22;59882;45.624;11.698;2023-03-31T16:32:09;14.20;74.60
66928;DHT22;59882;45.624;11.698;2023-03-31T16:34:54;14.10;74.70
66928;DHT22;59882;45.624;11.698;2023-03-31T16:37:20;14.10;74.80
66928;DHT22;59882;45.624;11.698;2023-03-31T16:39:46;14.10;74.90
66928;DHT22;59882;45.624;11.698;2023-03-31T16:42:12;14.10;74.70
66928;DHT22;59882;45.624;11.698;2023-03-31T16:44:37;14.10;75.10
66928;DHT22;59882;45.624;11.698;2023-03-31T16:47:03;14.10;74.80
66928;DHT22;59882;45.624;11.698;2023-03-31T16:49:28;14.10;76.00
66928;DHT22;59882;45.624;11.698;2023-03-31T16:51:55;14.10;76.10
66928;DHT22;59882;45.624;11.698;2023-03-31T16:54:20;14.10;76.10
66928;DHT22;59882;45.624;11.698;2023-03-31T16:56:46;14.10;76.00
66928;DHT22;59882;45.624;11.698;2023-03-31T16:59:12;14.10;75.80
66928;DHT22;59882;45.624;11.698;2023-03-31T17:01:38;14.10;75.50
66928;DHT22;59882;45.624;11.698;2023-03-31T17:04:04;14.10;76.20
66928;DHT22;59882;45.624;11.698;2023-03-31T17:06:29;14.10;76.70
66928;DHT22;59882;45.624;11.698;2023-03-31T17:08:55;14.00;76.10
66928;DHT22;59882;45.624;11.698;2023-03-31T17:11:21;14.00;76.30
66928;DHT22;59882;45.624;11.698;2023-03-31T17:13:47;14.00;76.00
66928;DHT22;59882;45.624;11.698;2023-03-31T17:16:13;14.00;76.40
66928;DHT22;59882;45.624;11.698;2023-03-31T17:18:39;14.00;76.70
66928;DHT22;59882;45.624;11.698;2023-03-31T17:21:10;14.00;76.40
66928;DHT22;59882;45.624;11.698;2023-03-31T17:23:36;13.90;76.30
66928;DHT22;59882;45.624;11.698;2023-03-31T17:26:04;13.90;76.50
66928;DHT22;59882;45.624;11.698;2023-03-31T17:28:31;13.90;76.10
66928;DHT22;59882;45.624;11.698;2023-03-31T17:30:58;13.90;76.10
66928;DHT22;59882;45.624;11.698;2023-03-31T17:33:24;13.90;76.60
66928;DHT22;59882;45.624;11.698;2023-03-31T17:35:54;13.90;76.40
66928;DHT22;59882;45.624;11.698;2023-03-31T17:38:21;13.90;77.00
66928;DHT22;59882;45.624;11.698;2023-03-31T17:40:47;13.80;77.40
66928;DHT22;59882;45.624;11.698;2023-03-31T17:43:12;13.80;77.70
66928;DHT22;59882;45.624;11.698;2023-03-31T17:45:38;13.70;77.70
66928;DHT22;59882;45.624;11.698;2023-03-31T17:48:04;13.70;77.40
66928;DHT22;59882;45.624;11.698;2023-03-31T17:50:31;13.70;77.50
66928;DHT22;59882;45.624;11.698;2023-03-31T17:52:57;13.60;77.30
66928;DHT22;59882;45.624;11.698;2023-03-31T17:55:23;13.60;77.00
66928;DHT22;59882;45.624;11.698;2023-03-31T17:57:49;13.70;77.10
66928;DHT22;59882;45.624;11.698;2023-03-31T18:00:15;13.60;77.30
66928;DHT22;59882;45.624;11.698;2023-03-31T18:02:41;13.70;77.30
66928;DHT22;59882;45.624;11.698;2023-03-31T18:05:08;13.60;76.60
66928;DHT22;59882;45.624;11.698;2023-03-31T18:07:35;13.60;76.80
66928;DHT22;59882;45.624;11.698;2023-03-31T18:10:02;13.60;77.30